OCN7AN EDDM-OMDB
Flight info
| Callsign | OCN7AN |
|---|---|
| Flight time | N/A |
| Altitude | 35000 |
| Route | VAVOR4N VAVOR M867 RADIZ DCT NIPEL DCT VRANA DCT POD DCT RINAV DCT BONZI DCT BITLA DCT SIGFO DCT NEVRA DCT AKINA DCT LINRO DCT VANZA N134 TULEP N318 NEVOL Q255 LUDEP P559 VUTEB |
| Aircraft | A320/M-SDE3FGHIRWY/LB1 |
Departure
| Time | 2026-05-05 23:05 |
|---|---|
| Airport | Munich Airport (EDDM) |
Arrival
| Time | N/A |
|---|---|
| Airport | Dubai International Airport (OMDB) |
| Time | Latitude | Longitude | Altitude | Speed | Heading |
|---|---|---|---|---|---|
| 2026-05-05 22:55 | 48.35696 | 11.77619 | 1459 ft | 0 kts | 263° |
| 2026-05-05 22:59 | 48.35697 | 11.77622 | 1459 ft | 0 kts | 263° |
| 2026-05-05 22:59 | 48.35698 | 11.77638 | 1458 ft | 2 kts | 262° |
| 2026-05-05 22:59 | 48.35700 | 11.77660 | 1457 ft | 2 kts | 263° |
| 2026-05-05 23:00 | 48.35699 | 11.77704 | 1458 ft | 2 kts | 301° |
| 2026-05-05 23:00 | 48.35689 | 11.77721 | 1459 ft | 2 kts | 330° |
| 2026-05-05 23:00 | 48.35680 | 11.77726 | 1459 ft | 0 kts | 350° |
| 2026-05-05 23:01 | 48.35672 | 11.77727 | 1459 ft | 0 kts | 353° |
| 2026-05-05 23:02 | 48.35675 | 11.77727 | 1459 ft | 1 kts | 353° |
| 2026-05-05 23:02 | 48.35710 | 11.77721 | 1458 ft | 8 kts | 353° |
| 2026-05-05 23:02 | 48.35794 | 11.77706 | 1456 ft | 15 kts | 353° |
| 2026-05-05 23:03 | 48.35907 | 11.77685 | 1457 ft | 16 kts | 354° |
| 2026-05-05 23:03 | 48.36028 | 11.77664 | 1457 ft | 17 kts | 353° |
| 2026-05-05 23:03 | 48.36142 | 11.77697 | 1458 ft | 17 kts | 43° |
| 2026-05-05 23:03 | 48.36213 | 11.77832 | 1459 ft | 16 kts | 54° |
| 2026-05-05 23:04 | 48.36276 | 11.77963 | 1461 ft | 15 kts | 54° |
| 2026-05-05 23:04 | 48.36349 | 11.78069 | 1461 ft | 13 kts | 14° |
| 2026-05-05 23:04 | 48.36382 | 11.78123 | 1460 ft | 7 kts | 76° |
| 2026-05-05 23:04 | 48.36400 | 11.78358 | 1459 ft | 53 kts | 84° |
| 2026-05-05 23:05 | 48.36468 | 11.79259 | 1458 ft | 118 kts | 84° |
| 2026-05-05 23:05 | 48.36583 | 11.80757 | 1450 ft | 172 kts | 84° |
| 2026-05-05 23:05 | 48.36711 | 11.82638 | 1840 ft | 184 kts | 86° |
| 2026-05-05 23:05 | 48.36830 | 11.84552 | 2441 ft | 187 kts | 85° |
| 2026-05-05 23:06 | 48.36965 | 11.86490 | 3061 ft | 189 kts | 83° |
| 2026-05-05 23:06 | 48.37116 | 11.88478 | 3489 ft | 198 kts | 82° |
| 2026-05-05 23:06 | 48.37286 | 11.90602 | 3789 ft | 213 kts | 82° |
| 2026-05-05 23:06 | 48.37470 | 11.92882 | 4095 ft | 228 kts | 82° |
| 2026-05-05 23:07 | 48.37667 | 11.95340 | 4326 ft | 249 kts | 83° |
| 2026-05-05 23:07 | 48.37761 | 11.98012 | 4730 ft | 263 kts | 100° |
| 2026-05-05 23:07 | 48.36998 | 12.00457 | 5361 ft | 262 kts | 137° |
| 2026-05-05 23:07 | 48.35572 | 12.02076 | 6094 ft | 259 kts | 154° |
| 2026-05-05 23:08 | 48.33917 | 12.03023 | 6758 ft | 256 kts | 175° |
| 2026-05-05 23:08 | 48.32127 | 12.03117 | 7237 ft | 265 kts | 186° |
| 2026-05-05 23:08 | 48.30245 | 12.02949 | 7732 ft | 276 kts | 187° |
| 2026-05-05 23:08 | 48.28318 | 12.02776 | 8440 ft | 280 kts | 186° |
| 2026-05-05 23:09 | 48.26378 | 12.02627 | 9195 ft | 282 kts | 185° |
| 2026-05-05 23:09 | 48.24420 | 12.02495 | 9938 ft | 284 kts | 185° |
| 2026-05-05 23:09 | 48.22468 | 12.02375 | 10656 ft | 287 kts | 185° |
| 2026-05-05 23:09 | 48.20473 | 12.02258 | 11371 ft | 289 kts | 185° |
| 2026-05-05 23:10 | 48.18467 | 12.02140 | 12062 ft | 291 kts | 185° |
| 2026-05-05 23:10 | 48.16441 | 12.02028 | 12726 ft | 294 kts | 183° |
| 2026-05-05 23:10 | 48.14386 | 12.02311 | 13358 ft | 301 kts | 171° |
| 2026-05-05 23:10 | 48.12407 | 12.03232 | 13972 ft | 306 kts | 161° |
| 2026-05-05 23:11 | 48.10441 | 12.04473 | 14588 ft | 310 kts | 160° |
| 2026-05-05 23:11 | 48.08466 | 12.05770 | 15202 ft | 312 kts | 160° |
| 2026-05-05 23:11 | 48.06477 | 12.07070 | 15810 ft | 314 kts | 160° |
| 2026-05-05 23:11 | 48.04473 | 12.08370 | 16389 ft | 316 kts | 160° |
| 2026-05-05 23:12 | 48.02459 | 12.09669 | 16989 ft | 317 kts | 161° |
| 2026-05-05 23:12 | 48.00431 | 12.10969 | 17556 ft | 319 kts | 161° |
| 2026-05-05 23:12 | 47.98409 | 12.12263 | 18098 ft | 320 kts | 161° |
| 2026-05-05 23:12 | 47.96355 | 12.13575 | 18624 ft | 322 kts | 161° |
| 2026-05-05 23:13 | 47.94322 | 12.15015 | 19167 ft | 326 kts | 156° |
| 2026-05-05 23:13 | 47.92411 | 12.16802 | 19669 ft | 332 kts | 149° |
| 2026-05-05 23:13 | 47.90554 | 12.18977 | 19908 ft | 345 kts | 145° |
| 2026-05-05 23:13 | 47.88694 | 12.21311 | 20166 ft | 355 kts | 144° |
| 2026-05-05 23:14 | 47.86801 | 12.23709 | 20603 ft | 359 kts | 144° |
| 2026-05-05 23:14 | 47.84895 | 12.26124 | 21125 ft | 361 kts | 144° |
| 2026-05-05 23:14 | 47.82975 | 12.28548 | 21622 ft | 362 kts | 145° |
| 2026-05-05 23:14 | 47.81071 | 12.30941 | 22097 ft | 364 kts | 145° |
| 2026-05-05 23:15 | 47.79124 | 12.33382 | 22564 ft | 366 kts | 145° |
| 2026-05-05 23:15 | 47.77189 | 12.35804 | 23009 ft | 369 kts | 145° |
| 2026-05-05 23:15 | 47.75220 | 12.38266 | 23461 ft | 371 kts | 146° |
| 2026-05-05 23:15 | 47.73235 | 12.40743 | 23887 ft | 373 kts | 146° |
| 2026-05-05 23:16 | 47.71262 | 12.43199 | 24308 ft | 375 kts | 146° |
| 2026-05-05 23:16 | 47.69250 | 12.45687 | 24732 ft | 377 kts | 146° |
| 2026-05-05 23:16 | 47.67227 | 12.48180 | 25146 ft | 379 kts | 146° |
| 2026-05-05 23:16 | 47.65224 | 12.50648 | 25516 ft | 382 kts | 146° |
| 2026-05-05 23:17 | 47.63179 | 12.53169 | 25871 ft | 385 kts | 145° |
| 2026-05-05 23:17 | 47.61169 | 12.55809 | 26225 ft | 389 kts | 143° |
| 2026-05-05 23:17 | 47.59163 | 12.58515 | 26586 ft | 391 kts | 143° |
| 2026-05-05 23:17 | 47.57146 | 12.61237 | 26927 ft | 394 kts | 143° |
| 2026-05-05 23:18 | 47.55120 | 12.63969 | 27273 ft | 396 kts | 143° |
| 2026-05-05 23:18 | 47.53090 | 12.66704 | 27617 ft | 398 kts | 143° |
| 2026-05-05 23:18 | 47.51041 | 12.69463 | 27935 ft | 400 kts | 144° |
| 2026-05-05 23:18 | 47.48978 | 12.72234 | 28249 ft | 402 kts | 143° |
| 2026-05-05 23:19 | 47.46908 | 12.75015 | 28577 ft | 404 kts | 143° |
| 2026-05-05 23:19 | 47.44821 | 12.77817 | 28872 ft | 406 kts | 143° |
| 2026-05-05 23:19 | 47.42751 | 12.80591 | 29176 ft | 408 kts | 143° |
| 2026-05-05 23:19 | 47.40649 | 12.83406 | 29459 ft | 410 kts | 143° |
| 2026-05-05 23:20 | 47.38539 | 12.86229 | 29730 ft | 412 kts | 143° |
| 2026-05-05 23:20 | 47.36415 | 12.89066 | 30026 ft | 413 kts | 143° |
| 2026-05-05 23:20 | 47.34279 | 12.91918 | 30272 ft | 415 kts | 143° |
| 2026-05-05 23:20 | 47.32138 | 12.94770 | 30531 ft | 416 kts | 143° |
| 2026-05-05 23:21 | 47.30016 | 12.97599 | 30764 ft | 418 kts | 143° |
| 2026-05-05 23:21 | 47.27848 | 13.00484 | 30981 ft | 421 kts | 143° |
| 2026-05-05 23:21 | 47.25666 | 13.03379 | 31184 ft | 423 kts | 143° |
| 2026-05-05 23:21 | 47.23481 | 13.06279 | 31384 ft | 425 kts | 143° |
| 2026-05-05 23:22 | 47.21284 | 13.09193 | 31574 ft | 428 kts | 144° |
| 2026-05-05 23:22 | 47.19073 | 13.12119 | 31783 ft | 430 kts | 144° |
| 2026-05-05 23:22 | 47.16850 | 13.15058 | 32011 ft | 431 kts | 144° |
| 2026-05-05 23:22 | 47.14621 | 13.18004 | 32171 ft | 434 kts | 144° |
| 2026-05-05 23:23 | 47.12374 | 13.20967 | 32330 ft | 436 kts | 144° |
| 2026-05-05 23:23 | 47.10148 | 13.23900 | 32502 ft | 439 kts | 144° |
| 2026-05-05 23:23 | 47.07877 | 13.26890 | 32682 ft | 440 kts | 144° |
| 2026-05-05 23:23 | 47.05598 | 13.29885 | 32878 ft | 442 kts | 144° |
| 2026-05-05 23:24 | 47.03313 | 13.32888 | 33066 ft | 443 kts | 144° |
| 2026-05-05 23:24 | 47.01022 | 13.35894 | 33267 ft | 444 kts | 144° |
| 2026-05-05 23:24 | 46.98714 | 13.38914 | 33457 ft | 445 kts | 144° |
| 2026-05-05 23:24 | 46.96408 | 13.41929 | 33580 ft | 447 kts | 144° |
| 2026-05-05 23:25 | 46.94087 | 13.44961 | 33693 ft | 450 kts | 144° |
| 2026-05-05 23:25 | 46.91761 | 13.48000 | 33920 ft | 449 kts | 145° |
| 2026-05-05 23:25 | 46.89424 | 13.51047 | 34109 ft | 450 kts | 145° |
| 2026-05-05 23:25 | 46.87103 | 13.54065 | 34209 ft | 453 kts | 145° |
| 2026-05-05 23:26 | 46.84753 | 13.57122 | 34354 ft | 454 kts | 145° |
| 2026-05-05 23:26 | 46.82398 | 13.60179 | 34513 ft | 455 kts | 145° |
| 2026-05-05 23:26 | 46.80037 | 13.63238 | 34668 ft | 455 kts | 144° |
| 2026-05-05 23:26 | 46.77674 | 13.66301 | 34866 ft | 455 kts | 145° |
| 2026-05-05 23:27 | 46.72956 | 13.72403 | 34948 ft | 454 kts | 145° |
| 2026-05-05 23:27 | 46.68225 | 13.78507 | 34958 ft | 456 kts | 145° |
| 2026-05-05 23:28 | 46.63489 | 13.84609 | 34954 ft | 456 kts | 145° |
| 2026-05-05 23:28 | 46.58735 | 13.90715 | 34949 ft | 458 kts | 145° |
| 2026-05-05 23:29 | 46.53970 | 13.96822 | 34946 ft | 458 kts | 144° |
| 2026-05-05 23:29 | 46.49215 | 14.02908 | 34940 ft | 459 kts | 144° |
| 2026-05-05 23:30 | 46.45315 | 14.08205 | 34940 ft | 460 kts | 143° |
| 2026-05-05 23:30 | 46.39878 | 14.15623 | 34936 ft | 462 kts | 142° |
| 2026-05-05 23:31 | 46.35231 | 14.21959 | 34933 ft | 464 kts | 142° |
| 2026-05-05 23:31 | 46.30550 | 14.28332 | 34938 ft | 463 kts | 142° |
| 2026-05-05 23:32 | 46.25856 | 14.34697 | 34941 ft | 464 kts | 142° |
| 2026-05-05 23:32 | 46.21162 | 14.41051 | 34946 ft | 464 kts | 142° |
| 2026-05-05 23:33 | 46.16460 | 14.47405 | 34944 ft | 465 kts | 142° |
| 2026-05-05 23:33 | 46.11738 | 14.53760 | 34942 ft | 466 kts | 142° |
| 2026-05-05 23:34 | 46.07005 | 14.60122 | 34939 ft | 467 kts | 142° |
| 2026-05-05 23:34 | 46.02277 | 14.66460 | 34935 ft | 468 kts | 143° |
| 2026-05-05 23:35 | 45.97519 | 14.72822 | 34932 ft | 468 kts | 143° |
| 2026-05-05 23:35 | 45.92768 | 14.79162 | 34923 ft | 468 kts | 143° |
| 2026-05-05 23:36 | 45.87993 | 14.85518 | 34926 ft | 468 kts | 143° |
| 2026-05-05 23:36 | 45.83220 | 14.91849 | 34922 ft | 469 kts | 143° |
| 2026-05-05 23:37 | 45.78434 | 14.98189 | 34924 ft | 470 kts | 143° |
| 2026-05-05 23:37 | 45.73634 | 15.04529 | 34928 ft | 470 kts | 143° |
| 2026-05-05 23:38 | 45.68838 | 15.10845 | 34921 ft | 470 kts | 142° |
| 2026-05-05 23:38 | 45.64072 | 15.17113 | 34927 ft | 471 kts | 142° |
| 2026-05-05 23:39 | 45.59260 | 15.23420 | 34927 ft | 472 kts | 142° |
| 2026-05-05 23:39 | 45.54436 | 15.29730 | 34925 ft | 472 kts | 142° |
| 2026-05-05 23:40 | 45.49613 | 15.36028 | 34927 ft | 471 kts | 142° |
| 2026-05-05 23:40 | 45.44795 | 15.42298 | 34932 ft | 471 kts | 142° |
| 2026-05-05 23:41 | 45.39963 | 15.48569 | 34932 ft | 473 kts | 142° |
| 2026-05-05 23:41 | 45.35114 | 15.54852 | 34940 ft | 474 kts | 142° |
| 2026-05-05 23:42 | 45.30252 | 15.61134 | 34986 ft | 474 kts | 142° |
| 2026-05-05 23:42 | 45.25380 | 15.67417 | 34910 ft | 475 kts | 143° |
| 2026-05-05 23:43 | 45.20510 | 15.73680 | 34926 ft | 474 kts | 143° |
| 2026-05-05 23:43 | 45.15635 | 15.79936 | 34942 ft | 474 kts | 143° |
| 2026-05-05 23:44 | 45.10760 | 15.86173 | 34959 ft | 474 kts | 142° |
| 2026-05-05 23:44 | 45.05878 | 15.92409 | 34944 ft | 474 kts | 142° |
| 2026-05-05 23:45 | 45.00985 | 15.98639 | 34952 ft | 476 kts | 142° |
| 2026-05-05 23:45 | 44.96065 | 16.04890 | 34893 ft | 476 kts | 142° |
| 2026-05-05 23:46 | 44.91153 | 16.11118 | 34952 ft | 476 kts | 142° |
| 2026-05-05 23:46 | 44.86224 | 16.17351 | 34965 ft | 477 kts | 142° |
| 2026-05-05 23:47 | 44.81303 | 16.23559 | 35002 ft | 476 kts | 142° |
| 2026-05-05 23:47 | 44.76379 | 16.29756 | 34984 ft | 477 kts | 142° |
| 2026-05-05 23:48 | 44.71441 | 16.35953 | 34986 ft | 477 kts | 142° |
| 2026-05-05 23:48 | 44.66509 | 16.42133 | 34993 ft | 476 kts | 142° |
| 2026-05-05 23:49 | 44.61572 | 16.48302 | 35002 ft | 477 kts | 142° |
| 2026-05-05 23:49 | 44.56624 | 16.54471 | 35004 ft | 477 kts | 142° |
| 2026-05-05 23:50 | 44.51670 | 16.60631 | 35004 ft | 478 kts | 141° |
| 2026-05-05 23:50 | 44.46737 | 16.66754 | 35012 ft | 478 kts | 142° |
| 2026-05-05 23:51 | 44.41775 | 16.72897 | 35017 ft | 478 kts | 142° |
| 2026-05-05 23:51 | 44.36807 | 16.79031 | 35024 ft | 479 kts | 142° |
| 2026-05-05 23:52 | 44.31828 | 16.85165 | 35028 ft | 479 kts | 142° |
| 2026-05-05 23:52 | 44.26837 | 16.91301 | 35030 ft | 480 kts | 142° |
| 2026-05-05 23:53 | 44.21851 | 16.97419 | 35036 ft | 479 kts | 142° |
| 2026-05-05 23:53 | 44.16836 | 17.03549 | 35032 ft | 480 kts | 142° |
| 2026-05-05 23:54 | 44.11825 | 17.09667 | 35040 ft | 481 kts | 142° |
| 2026-05-05 23:54 | 44.06802 | 17.15783 | 35047 ft | 481 kts | 142° |
| 2026-05-05 23:55 | 44.01775 | 17.21889 | 35047 ft | 481 kts | 141° |
| 2026-05-05 23:55 | 43.96854 | 17.27857 | 35043 ft | 481 kts | 141° |
| 2026-05-05 23:56 | 43.91828 | 17.33941 | 35042 ft | 481 kts | 141° |
| 2026-05-05 23:56 | 43.86826 | 17.39975 | 35042 ft | 481 kts | 141° |
| 2026-05-05 23:57 | 43.81791 | 17.46037 | 35043 ft | 482 kts | 141° |
| 2026-05-05 23:57 | 43.76745 | 17.52101 | 35046 ft | 483 kts | 141° |
| 2026-05-05 23:58 | 43.71796 | 17.58356 | 35046 ft | 484 kts | 139° |
| 2026-05-05 23:58 | 43.66898 | 17.64697 | 35042 ft | 484 kts | 139° |
| 2026-05-05 23:59 | 43.61996 | 17.71034 | 35041 ft | 483 kts | 139° |
| 2026-05-05 23:59 | 43.57092 | 17.77350 | 35035 ft | 484 kts | 139° |
| 2026-05-06 00:00 | 43.52176 | 17.83676 | 35040 ft | 485 kts | 139° |
| 2026-05-06 00:00 | 43.47250 | 17.89994 | 35049 ft | 486 kts | 139° |
| 2026-05-06 00:01 | 43.42313 | 17.96315 | 35051 ft | 486 kts | 139° |
| 2026-05-06 00:01 | 43.37365 | 18.02632 | 35054 ft | 486 kts | 139° |
| 2026-05-06 00:02 | 43.32424 | 18.08927 | 35050 ft | 485 kts | 139° |
| 2026-05-06 00:02 | 43.27486 | 18.15202 | 35055 ft | 485 kts | 139° |
| 2026-05-06 00:03 | 43.22545 | 18.21473 | 35064 ft | 486 kts | 139° |
| 2026-05-06 00:03 | 43.17592 | 18.27737 | 35074 ft | 486 kts | 139° |
| 2026-05-06 00:04 | 43.12635 | 18.33992 | 35082 ft | 486 kts | 139° |
| 2026-05-06 00:04 | 43.07671 | 18.40243 | 35085 ft | 487 kts | 139° |
| 2026-05-06 00:05 | 43.00219 | 18.49602 | 35090 ft | 487 kts | 139° |
| 2026-05-06 00:06 | 42.95233 | 18.55845 | 35092 ft | 488 kts | 139° |
| 2026-05-06 00:06 | 42.90242 | 18.62078 | 35091 ft | 488 kts | 139° |
| 2026-05-06 00:07 | 42.85243 | 18.68307 | 35092 ft | 488 kts | 139° |
| 2026-05-06 00:07 | 42.80243 | 18.74526 | 35091 ft | 488 kts | 139° |
| 2026-05-06 00:08 | 42.75240 | 18.80736 | 35093 ft | 489 kts | 139° |
| 2026-05-06 00:08 | 42.70222 | 18.86947 | 35096 ft | 489 kts | 139° |
| 2026-05-06 00:09 | 42.65199 | 18.93155 | 35094 ft | 490 kts | 139° |
| 2026-05-06 00:09 | 42.60170 | 18.99349 | 35095 ft | 490 kts | 139° |
| 2026-05-06 00:10 | 42.55129 | 19.05552 | 35092 ft | 489 kts | 139° |
| 2026-05-06 00:10 | 42.50093 | 19.11732 | 35087 ft | 490 kts | 139° |
| 2026-05-06 00:11 | 42.45062 | 19.17897 | 35078 ft | 489 kts | 139° |
| 2026-05-06 00:11 | 42.40027 | 19.24047 | 35074 ft | 489 kts | 139° |
| 2026-05-06 00:12 | 42.35129 | 19.30390 | 35074 ft | 489 kts | 136° |
| 2026-05-06 00:12 | 42.30289 | 19.36813 | 35073 ft | 489 kts | 136° |
| 2026-05-06 00:13 | 42.25447 | 19.43227 | 35074 ft | 489 kts | 136° |
| 2026-05-06 00:13 | 42.20588 | 19.49643 | 35074 ft | 491 kts | 136° |
| 2026-05-06 00:14 | 42.15721 | 19.56056 | 35074 ft | 491 kts | 136° |
| 2026-05-06 00:14 | 42.10853 | 19.62457 | 35075 ft | 490 kts | 136° |
| 2026-05-06 00:15 | 42.05970 | 19.68864 | 35075 ft | 492 kts | 136° |
| 2026-05-06 00:15 | 42.01083 | 19.75262 | 35074 ft | 492 kts | 136° |
| 2026-05-06 00:16 | 41.96296 | 19.81809 | 35076 ft | 492 kts | 133° |
| 2026-05-06 00:16 | 41.91684 | 19.88570 | 35075 ft | 492 kts | 132° |
| 2026-05-06 00:17 | 41.87101 | 19.95288 | 35075 ft | 492 kts | 132° |
| 2026-05-06 00:17 | 41.82481 | 20.02039 | 35075 ft | 492 kts | 132° |
| 2026-05-06 00:18 | 41.77857 | 20.08776 | 35075 ft | 492 kts | 132° |
| 2026-05-06 00:18 | 41.73232 | 20.15502 | 35074 ft | 493 kts | 132° |
| 2026-05-06 00:19 | 41.68604 | 20.22218 | 35074 ft | 492 kts | 132° |
| 2026-05-06 00:19 | 41.63977 | 20.28917 | 35012 ft | 492 kts | 132° |
| 2026-05-06 00:19 | 41.61660 | 20.32265 | 35176 ft | 492 kts | 132° |
| 2026-05-06 00:20 | 41.59344 | 20.35607 | 35063 ft | 491 kts | 132° |
| 2026-05-06 00:20 | 41.54714 | 20.42283 | 35075 ft | 491 kts | 132° |
| 2026-05-06 00:21 | 41.50066 | 20.48924 | 35073 ft | 491 kts | 132° |
| 2026-05-06 00:21 | 41.45378 | 20.55507 | 35074 ft | 491 kts | 132° |
| 2026-05-06 00:22 | 41.40692 | 20.62077 | 35076 ft | 491 kts | 132° |
| 2026-05-06 00:22 | 41.36002 | 20.68653 | 35079 ft | 491 kts | 133° |
| 2026-05-06 00:23 | 41.31315 | 20.75212 | 35075 ft | 491 kts | 133° |
| 2026-05-06 00:23 | 41.26622 | 20.81768 | 35073 ft | 491 kts | 133° |
| 2026-05-06 00:24 | 41.21923 | 20.88315 | 35076 ft | 491 kts | 133° |
| 2026-05-06 00:24 | 41.17223 | 20.94853 | 35081 ft | 491 kts | 133° |
| 2026-05-06 00:25 | 41.12507 | 21.01394 | 35085 ft | 492 kts | 132° |
| 2026-05-06 00:25 | 41.07790 | 21.07924 | 35088 ft | 492 kts | 132° |
| 2026-05-06 00:26 | 41.03075 | 21.14441 | 35082 ft | 491 kts | 132° |
| 2026-05-06 00:26 | 40.98357 | 21.20948 | 35082 ft | 491 kts | 132° |
| 2026-05-06 00:27 | 40.93648 | 21.27432 | 35092 ft | 490 kts | 132° |
| 2026-05-06 00:27 | 40.88915 | 21.33930 | 35089 ft | 489 kts | 132° |
| 2026-05-06 00:28 | 40.84037 | 21.40150 | 35083 ft | 489 kts | 136° |
| 2026-05-06 00:28 | 40.79062 | 21.46253 | 35081 ft | 490 kts | 136° |
| 2026-05-06 00:29 | 40.74089 | 21.52355 | 35086 ft | 489 kts | 136° |
| 2026-05-06 00:29 | 40.69124 | 21.58441 | 35074 ft | 488 kts | 136° |
| 2026-05-06 00:30 | 40.64164 | 21.64513 | 35074 ft | 488 kts | 136° |
| 2026-05-06 00:30 | 40.59197 | 21.70579 | 35071 ft | 489 kts | 136° |
| 2026-05-06 00:31 | 40.54227 | 21.76639 | 35074 ft | 489 kts | 136° |
| 2026-05-06 00:31 | 40.49254 | 21.82690 | 35076 ft | 489 kts | 136° |
| 2026-05-06 00:32 | 40.44278 | 21.88729 | 35081 ft | 489 kts | 136° |
| 2026-05-06 00:32 | 40.39297 | 21.94763 | 35080 ft | 488 kts | 136° |
| 2026-05-06 00:33 | 40.34313 | 22.00788 | 35073 ft | 488 kts | 136° |
| 2026-05-06 00:33 | 40.29363 | 22.06759 | 35066 ft | 489 kts | 136° |
| 2026-05-06 00:34 | 40.24371 | 22.12768 | 35060 ft | 489 kts | 136° |
| 2026-05-06 00:34 | 40.19372 | 22.18774 | 35071 ft | 489 kts | 136° |
| 2026-05-06 00:35 | 40.14367 | 22.24773 | 35071 ft | 490 kts | 136° |
| 2026-05-06 00:35 | 40.09354 | 22.30770 | 35070 ft | 490 kts | 136° |
| 2026-05-06 00:36 | 40.04329 | 22.36769 | 35052 ft | 490 kts | 136° |
| 2026-05-06 00:36 | 39.99308 | 22.42751 | 35042 ft | 489 kts | 136° |
| 2026-05-06 00:37 | 39.94289 | 22.48716 | 35040 ft | 489 kts | 136° |
| 2026-05-06 00:37 | 39.89268 | 22.54675 | 35035 ft | 489 kts | 136° |
| 2026-05-06 00:38 | 39.84251 | 22.60614 | 35024 ft | 489 kts | 136° |
| 2026-05-06 00:38 | 39.79229 | 22.66545 | 35027 ft | 489 kts | 137° |
| 2026-05-06 00:39 | 39.74205 | 22.72471 | 35039 ft | 489 kts | 137° |
| 2026-05-06 00:39 | 39.69181 | 22.78383 | 35036 ft | 488 kts | 137° |
| 2026-05-06 00:40 | 39.64157 | 22.84280 | 35028 ft | 488 kts | 137° |
| 2026-05-06 00:40 | 39.59131 | 22.90168 | 35021 ft | 488 kts | 137° |
| 2026-05-06 00:41 | 39.54105 | 22.96050 | 35027 ft | 488 kts | 137° |
| 2026-05-06 00:41 | 39.49069 | 23.01927 | 35045 ft | 489 kts | 137° |
| 2026-05-06 00:42 | 39.44029 | 23.07797 | 35034 ft | 489 kts | 137° |
| 2026-05-06 00:42 | 39.38983 | 23.13659 | 35016 ft | 489 kts | 137° |
| 2026-05-06 00:43 | 39.33934 | 23.19515 | 35007 ft | 489 kts | 137° |
| 2026-05-06 00:43 | 39.28882 | 23.25367 | 35002 ft | 489 kts | 137° |
| 2026-05-06 00:44 | 39.23823 | 23.31212 | 35000 ft | 490 kts | 137° |
| 2026-05-06 00:44 | 39.18763 | 23.37043 | 35000 ft | 489 kts | 137° |
| 2026-05-06 00:45 | 39.13705 | 23.42864 | 34994 ft | 489 kts | 137° |
| 2026-05-06 00:45 | 39.08643 | 23.48682 | 34996 ft | 490 kts | 137° |
| 2026-05-06 00:46 | 39.03578 | 23.54494 | 34994 ft | 489 kts | 137° |
| 2026-05-06 00:46 | 38.98513 | 23.60294 | 34995 ft | 489 kts | 137° |
| 2026-05-06 00:47 | 38.93444 | 23.66091 | 34992 ft | 489 kts | 137° |
| 2026-05-06 00:47 | 38.88448 | 23.72004 | 34991 ft | 489 kts | 136° |
| 2026-05-06 00:48 | 38.83487 | 23.77920 | 34996 ft | 489 kts | 136° |
| 2026-05-06 00:48 | 38.78513 | 23.83829 | 34997 ft | 489 kts | 136° |
| 2026-05-06 00:49 | 38.73526 | 23.89731 | 35001 ft | 490 kts | 136° |
| 2026-05-06 00:49 | 38.68538 | 23.95620 | 35003 ft | 488 kts | 136° |
| 2026-05-06 00:50 | 38.63547 | 24.01502 | 35005 ft | 489 kts | 136° |
| 2026-05-06 00:50 | 38.58551 | 24.07376 | 35007 ft | 489 kts | 136° |
| 2026-05-06 00:51 | 38.53548 | 24.13250 | 35007 ft | 490 kts | 136° |
| 2026-05-06 00:51 | 38.48531 | 24.19129 | 35007 ft | 491 kts | 136° |
| 2026-05-06 00:52 | 38.43516 | 24.24990 | 35007 ft | 491 kts | 136° |
| 2026-05-06 00:52 | 38.38490 | 24.30856 | 35009 ft | 491 kts | 136° |
| 2026-05-06 00:53 | 38.33465 | 24.36715 | 35010 ft | 491 kts | 136° |
| 2026-05-06 00:53 | 38.28429 | 24.42574 | 35011 ft | 492 kts | 136° |
| 2026-05-06 00:54 | 38.23388 | 24.48428 | 35012 ft | 492 kts | 136° |
| 2026-05-06 00:54 | 38.18348 | 24.54278 | 35014 ft | 492 kts | 135° |
| 2026-05-06 00:55 | 38.13654 | 24.60551 | 35018 ft | 491 kts | 129° |
| 2026-05-06 00:55 | 38.09183 | 24.67074 | 35016 ft | 491 kts | 129° |
| 2026-05-06 00:56 | 38.04709 | 24.73602 | 35017 ft | 492 kts | 129° |
| 2026-05-06 00:56 | 38.00221 | 24.80111 | 35014 ft | 492 kts | 129° |
| 2026-05-06 00:57 | 37.95722 | 24.86622 | 35011 ft | 492 kts | 129° |
| 2026-05-06 00:57 | 37.91225 | 24.93114 | 35012 ft | 491 kts | 129° |
| 2026-05-06 00:58 | 37.86724 | 24.99603 | 35010 ft | 492 kts | 129° |
| 2026-05-06 00:58 | 37.82215 | 25.06092 | 35012 ft | 493 kts | 129° |
| 2026-05-06 00:59 | 37.77659 | 25.12631 | 35012 ft | 493 kts | 129° |
| 2026-05-06 00:59 | 37.73167 | 25.19058 | 35018 ft | 493 kts | 129° |
| 2026-05-06 01:00 | 37.68601 | 25.25582 | 35015 ft | 494 kts | 129° |
| 2026-05-06 01:00 | 37.64061 | 25.32062 | 35017 ft | 495 kts | 129° |
| 2026-05-06 01:01 | 37.59505 | 25.38546 | 35013 ft | 495 kts | 129° |
| 2026-05-06 01:01 | 37.54944 | 25.45023 | 35020 ft | 494 kts | 129° |
| 2026-05-06 01:02 | 37.50382 | 25.51491 | 35019 ft | 494 kts | 129° |
| 2026-05-06 01:02 | 37.45820 | 25.57947 | 35019 ft | 494 kts | 129° |
| 2026-05-06 01:03 | 37.41252 | 25.64400 | 35017 ft | 495 kts | 129° |
| 2026-05-06 01:03 | 37.36705 | 25.70811 | 35017 ft | 496 kts | 130° |
| 2026-05-06 01:04 | 37.32127 | 25.77252 | 35017 ft | 495 kts | 130° |